Time;durP1;ratioP1;P1;durP2;ratioP2;P2;SDS_P1;SDS_P2;PMS_P1;PMS_P2;Temp;Humidity;BMP_temperature;BMP_pressure;BME280_temperature;BME280_humidity;BME280_pressure;Samples;Min_cycle;Max_cycle;Signal;HPM_P1;HPM_P2
2021/01/22 00:00:09;;;;;;;15.82;9.65;;;9.60;80.50;;;;;;5031131;28;20045;-52
2021/01/22 00:02:35;;;;;;;15.80;10.38;;;9.70;80.40;;;;;;5030824;28;20073;-51
2021/01/22 00:05:01;;;;;;;17.60;10.43;;;9.70;80.20;;;;;;5077398;28;20032;-51
2021/01/22 00:07:27;;;;;;;18.25;10.65;;;9.60;80.40;;;;;;5093480;28;20081;-51
2021/01/22 00:09:53;;;;;;;16.15;10.95;;;9.50;80.90;;;;;;5093259;28;20110;-52
2021/01/22 00:12:19;;;;;;;17.60;11.98;;;9.60;81.10;;;;;;5092943;28;20024;-51
2021/01/22 00:14:47;;;;;;;18.85;11.43;;;9.40;80.90;;;;;;5093014;28;20079;-51
2021/01/22 00:17:13;;;;;;;16.77;10.77;;;9.40;81.00;;;;;;5093168;28;20050;-51
2021/01/22 00:19:39;;;;;;;20.00;11.45;;;9.30;81.70;;;;;;5092741;28;20395;-52
2021/01/22 00:22:04;;;;;;;16.13;10.35;;;9.10;82.30;;;;;;5092947;28;20035;-52
2021/01/22 00:24:30;;;;;;;14.45;9.73;;;9.10;82.20;;;;;;5092900;28;20031;-51
2021/01/22 00:26:56;;;;;;;17.05;8.75;;;9.20;81.80;;;;;;5092801;28;20044;-51
2021/01/22 00:29:22;;;;;;;15.70;8.55;;;9.30;81.50;;;;;;5092866;28;20500;-52
2021/01/22 00:31:47;;;;;;;16.40;10.32;;;9.30;81.40;;;;;;5092381;28;20412;-52
2021/01/22 00:34:13;;;;;;;12.35;7.63;;;9.30;81.10;;;;;;5092464;28;20530;-52
2021/01/22 00:36:39;;;;;;;10.35;7.00;;;9.00;82.20;;;;;;5092788;28;20078;-51
2021/01/22 00:39:05;;;;;;;12.13;6.93;;;8.90;82.90;;;;;;5093123;28;20032;-52
2021/01/22 00:41:32;;;;;;;10.95;6.78;;;8.90;82.90;;;;;;5092425;28;20031;-51
2021/01/22 00:43:58;;;;;;;9.68;6.63;;;9.00;82.40;;;;;;5092839;28;20055;-51
2021/01/22 00:46:24;;;;;;;9.77;5.65;;;9.10;81.70;;;;;;5092707;28;20057;-51
2021/01/22 00:48:50;;;;;;;12.00;6.47;;;8.80;82.70;;;;;;5092259;28;20051;-52
2021/01/22 00:51:15;;;;;;;10.15;5.88;;;8.90;82.70;;;;;;5092993;28;20027;-51
2021/01/22 00:53:41;;;;;;;10.05;5.40;;;8.80;83.40;;;;;;5092352;28;20071;-51
2021/01/22 00:56:07;;;;;;;11.35;5.97;;;8.70;83.70;;;;;;5092453;28;20110;-52
2021/01/22 00:58:33;;;;;;;6.03;2.95;;;8.70;83.30;;;;;;5092313;28;20100;-51
2021/01/22 01:00:59;;;;;;;6.43;3.50;;;8.90;82.40;;;;;;5092346;28;20467;-51
2021/01/22 01:03:25;;;;;;;5.40;3.00;;;8.90;82.20;;;;;;5092347;28;20077;-51
2021/01/22 01:05:51;;;;;;;7.05;3.67;;;9.10;81.20;;;;;;5092224;28;20630;-51
2021/01/22 01:08:16;;;;;;;3.90;1.92;;;9.30;80.30;;;;;;5092382;28;20032;-51
2021/01/22 01:10:42;;;;;;;3.92;2.70;;;9.30;80.20;;;;;;5091971;28;20032;-51
2021/01/22 01:13:08;;;;;;;5.65;2.88;;;9.50;79.10;;;;;;5092209;28;20552;-51
2021/01/22 01:15:33;;;;;;;6.55;3.13;;;9.40;79.30;;;;;;5092091;28;20036;-51
2021/01/22 01:17:59;;;;;;;4.35;2.80;;;9.50;79.10;;;;;;5092206;28;20364;-51
2021/01/22 01:20:25;;;;;;;4.90;3.03;;;9.40;79.00;;;;;;5092326;28;20491;-51
2021/01/22 01:22:51;;;;;;;6.05;2.40;;;9.30;79.80;;;;;;5049529;28;20077;-51
2021/01/22 01:25:17;;;;;;;8.82;3.53;;;9.20;80.30;;;;;;5049546;28;20045;-51
2021/01/22 01:27:43;;;;;;;7.60;3.97;;;9.10;81.20;;;;;;5049513;28;20420;-52
2021/01/22 01:30:10;;;;;;;7.05;4.10;;;9.10;81.00;;;;;;5049817;28;20041;-51
2021/01/22 01:32:35;;;;;;;12.70;7.00;;;9.10;81.00;;;;;;5049250;28;20049;-51
2021/01/22 01:35:01;;;;;;;11.80;5.28;;;9.10;81.50;;;;;;5049421;28;20055;-51
2021/01/22 01:37:27;;;;;;;11.88;6.65;;;8.90;81.80;;;;;;5049770;28;20436;-51
2021/01/22 01:39:53;;;;;;;10.48;6.60;;;8.90;82.00;;;;;;5049271;28;20029;-51
2021/01/22 01:42:19;;;;;;;12.43;6.53;;;8.80;82.50;;;;;;5016168;28;20077;-51
2021/01/22 01:44:44;;;;;;;10.55;6.43;;;8.70;82.80;;;;;;5052659;28;20129;-51
2021/01/22 01:47:10;;;;;;;20.83;13.35;;;8.80;82.10;;;;;;5053136;28;20036;-52
2021/01/22 01:49:36;;;;;;;18.15;10.15;;;8.80;82.00;;;;;;5053217;28;20044;-52
2021/01/22 01:52:02;;;;;;;14.27;6.70;;;8.90;82.00;;;;;;5052923;28;20389;-51
2021/01/22 01:54:28;;;;;;;14.20;8.30;;;8.80;82.00;;;;;;5085682;28;20044;-52
2021/01/22 01:56:54;;;;;;;13.57;8.07;;;9.00;81.80;;;;;;5095605;28;20071;-51
2021/01/22 01:59:20;;;;;;;16.25;9.05;;;9.00;81.10;;;;;;5095783;28;20059;-51
2021/01/22 02:01:48;;;;;;;18.50;10.50;;;8.80;81.60;;;;;;5095934;28;20472;-51
2021/01/22 02:04:13;;;;;;;18.48;9.10;;;8.90;81.80;;;;;;5095385;28;20031;-51
2021/01/22 02:06:39;;;;;;;14.48;8.00;;;8.90;81.40;;;;;;5095599;28;20476;-51
2021/01/22 02:09:07;;;;;;;14.38;7.82;;;8.90;81.40;;;;;;5095501;28;20027;-51
2021/01/22 02:11:32;;;;;;;19.05;10.20;;;8.80;81.40;;;;;;5094987;28;20485;-52
2021/01/22 02:13:59;;;;;;;17.77;9.15;;;8.80;81.60;;;;;;5095505;28;20036;-51
2021/01/22 02:16:25;;;;;;;17.65;8.98;;;8.90;81.60;;;;;;5096542;28;20497;-51
2021/01/22 02:18:54;;;;;;;18.77;9.88;;;8.80;81.30;;;;;;5096321;28;20471;-51
2021/01/22 02:21:36;;;;;;;18.42;10.48;;;8.80;81.40;;;;;;5096473;28;20042;-51
2021/01/22 02:24:22;;;;;;;12.70;6.35;;;8.90;81.30;;;;;;5096495;28;20036;-51
2021/01/22 02:27:05;;;;;;;7.80;4.90;;;8.80;81.20;;;;;;5095982;28;20044;-51
2021/01/22 02:29:32;;;;;;;9.55;5.40;;;8.80;81.60;;;;;;5011510;28;20051;-51
2021/01/22 02:32:03;;;;;;;10.32;5.35;;;8.80;81.60;;;;;;5096036;28;20490;-51
2021/01/22 02:34:29;;;;;;;12.50;5.82;;;8.90;80.80;;;;;;5060692;28;20044;-51
2021/01/22 02:36:59;;;;;;;8.38;5.15;;;8.90;80.70;;;;;;5096226;28;20121;-51
2021/01/22 02:39:26;;;;;;;11.55;5.70;;;8.80;80.40;;;;;;5096130;28;20376;-51
2021/01/22 02:41:56;;;;;;;11.43;5.55;;;8.80;80.60;;;;;;5060293;28;20682;-52
2021/01/22 02:44:23;;;;;;;10.68;4.90;;;8.80;80.40;;;;;;5096095;28;20036;-52
2021/01/22 02:46:48;;;;;;;9.93;5.40;;;8.80;80.10;;;;;;5060325;28;20040;-51
2021/01/22 02:49:14;;;;;;;9.27;5.03;;;8.90;80.20;;;;;;5077638;28;20123;-51
2021/01/22 02:51:40;;;;;;;12.68;6.97;;;9.00;79.90;;;;;;5096156;28;20483;-51
2021/01/22 02:54:06;;;;;;;11.38;6.03;;;8.90;80.20;;;;;;5095558;28;20028;-51
2021/01/22 02:56:48;;;;;;;9.23;5.45;;;8.70;80.70;;;;;;5026839;28;20542;-51
2021/01/22 02:59:25;;;;;;;;;;;8.70;80.90;;;;;;5096286;28;20153;-52
2021/01/22 03:02:03;;;;;;;9.57;5.00;;;8.60;81.20;;;;;;5077396;28;19908;-51
2021/01/22 03:04:29;;;;;;;10.77;5.72;;;8.60;81.50;;;;;;5077590;28;20028;-52
2021/01/22 03:06:57;;;;;;;10.18;5.13;;;8.70;81.10;;;;;;5095564;28;20028;-51
2021/01/22 03:09:26;;;;;;;8.70;4.00;;;8.70;80.70;;;;;;5077328;28;20111;-51
2021/01/22 03:11:56;;;;;;;10.45;4.40;;;8.80;80.30;;;;;;5095522;28;20553;-51
2021/01/22 03:14:23;;;;;;;7.20;4.25;;;8.70;80.30;;;;;;5095504;28;20441;-51
2021/01/22 03:16:50;;;;;;;10.18;5.10;;;8.70;80.50;;;;;;5095103;28;20483;-51
2021/01/22 03:19:17;;;;;;;8.38;4.13;;;8.60;80.80;;;;;;5095582;28;20111;-51
2021/01/22 03:21:43;;;;;;;7.97;4.45;;;8.50;81.00;;;;;;5095276;28;20027;-51
2021/01/22 03:24:09;;;;;;;7.00;3.72;;;8.50;81.20;;;;;;5026104;28;20372;-51
2021/01/22 03:26:35;;;;;;;7.40;4.07;;;8.40;81.60;;;;;;5095239;28;20024;-51
2021/01/22 03:29:01;;;;;;;6.07;4.05;;;8.30;82.10;;;;;;5095200;28;20053;-51
2021/01/22 03:31:26;;;;;;;8.68;4.88;;;8.30;82.20;;;;;;5094737;28;20916;-51
2021/01/22 03:33:52;;;;;;;12.80;5.20;;;8.30;82.00;;;;;;5095042;28;20028;-51
2021/01/22 03:36:18;;;;;;;10.43;5.07;;;8.20;82.40;;;;;;5095021;28;20039;-51
2021/01/22 03:38:44;;;;;;;11.15;5.57;;;8.20;82.30;;;;;;5094852;28;20024;-51
2021/01/22 03:41:09;;;;;;;16.40;8.15;;;8.10;82.50;;;;;;5094813;28;20480;-51
2021/01/22 03:43:35;;;;;;;11.88;7.32;;;7.80;83.50;;;;;;5094702;28;20364;-52
2021/01/22 03:46:01;;;;;;;10.70;5.93;;;7.80;83.80;;;;;;5094658;28;20020;-51
2021/01/22 03:48:27;;;;;;;11.90;6.05;;;7.80;84.20;;;;;;5018928;28;20471;-51
2021/01/22 03:50:52;;;;;;;9.05;5.28;;;7.70;84.50;;;;;;5052313;28;20037;-51
2021/01/22 03:53:18;;;;;;;10.80;5.75;;;7.80;84.20;;;;;;5051878;28;20176;-51
2021/01/22 03:55:44;;;;;;;8.93;5.68;;;7.80;84.40;;;;;;5052228;28;20436;-51
2021/01/22 03:58:10;;;;;;;11.68;7.07;;;7.90;84.00;;;;;;5052206;28;20032;-51
2021/01/22 04:00:36;;;;;;;11.05;5.95;;;8.00;83.80;;;;;;5051745;28;20175;-51
2021/01/22 04:03:03;;;;;;;10.70;5.40;;;8.00;83.30;;;;;;5052001;28;20033;-51
2021/01/22 04:05:29;;;;;;;11.75;6.43;;;7.90;83.80;;;;;;5051627;28;20028;-51
2021/01/22 04:07:55;;;;;;;26.45;17.13;;;7.70;84.50;;;;;;5051393;28;20470;-51
2021/01/22 04:10:20;;;;;;;12.40;7.28;;;7.70;84.90;;;;;;5051994;28;20481;-51
2021/01/22 04:12:46;;;;;;;9.43;6.20;;;7.60;84.80;;;;;;5051650;28;20041;-52
2021/01/22 04:15:13;;;;;;;14.75;6.22;;;7.60;84.90;;;;;;5000869;28;20428;-52
2021/01/22 04:17:39;;;;;;;9.80;6.15;;;7.60;85.10;;;;;;5051620;28;20094;-52
2021/01/22 04:20:05;;;;;;;9.80;6.40;;;7.40;86.10;;;;;;5051746;28;20037;-52
2021/01/22 04:22:31;;;;;;;10.05;6.00;;;7.50;85.70;;;;;;5051196;28;20079;-52
2021/01/22 04:24:57;;;;;;;9.27;5.70;;;7.40;85.90;;;;;;5056860;28;20061;-52
2021/01/22 04:27:23;;;;;;;10.70;5.93;;;7.30;86.30;;;;;;5094379;28;20031;-52
2021/01/22 04:29:48;;;;;;;9.38;6.03;;;7.30;86.40;;;;;;5094448;28;20024;-52
2021/01/22 04:32:15;;;;;;;11.30;6.30;;;7.20;87.50;;;;;;5075479;28;20048;-52
2021/01/22 04:34:41;;;;;;;11.23;7.32;;;7.10;87.00;;;;;;5093855;28;20345;-52
2021/01/22 04:37:06;;;;;;;12.15;7.72;;;7.20;87.00;;;;;;5058395;28;20043;-52
2021/01/22 04:39:32;;;;;;;14.13;6.70;;;6.90;87.70;;;;;;5093772;28;20606;-52
2021/01/22 04:41:59;;;;;;;9.43;6.28;;;6.70;88.50;;;;;;5093844;28;20423;-52
2021/01/22 04:44:25;;;;;;;10.57;6.53;;;6.50;89.90;;;;;;5094003;28;20023;-51
2021/01/22 04:46:52;;;;;;;9.85;6.18;;;6.40;90.20;;;;;;5093486;28;20045;-52
2021/01/22 04:49:20;;;;;;;10.65;6.35;;;6.60;89.90;;;;;;5094022;28;20042;-51
2021/01/22 04:51:49;;;;;;;9.57;5.40;;;6.40;90.20;;;;;;5093355;28;20025;-52
2021/01/22 04:54:37;;;;;;;8.52;6.07;;;6.40;90.40;;;;;;5093539;28;20020;-52
2021/01/22 04:57:06;;;;;;;9.98;6.47;;;6.60;90.00;;;;;;5093678;28;20032;-52
2021/01/22 04:59:47;;;;;;;11.02;7.22;;;6.60;89.90;;;;;;5093432;28;20023;-52
2021/01/22 05:02:13;;;;;;;8.07;5.90;;;6.60;90.00;;;;;;5058071;28;20491;-52
2021/01/22 05:04:40;;;;;;;9.95;5.55;;;6.40;90.30;;;;;;5093551;28;20024;-52
2021/01/22 05:07:10;;;;;;;9.60;6.60;;;6.20;90.90;;;;;;5093332;28;20024;-52
2021/01/22 05:09:36;;;;;;;11.02;5.15;;;6.10;91.10;;;;;;5093318;28;20093;-52
2021/01/22 05:12:03;;;;;;;7.18;5.28;;;6.10;91.00;;;;;;5093502;28;20032;-52
2021/01/22 05:14:29;;;;;;;10.55;5.28;;;6.00;91.30;;;;;;5093280;28;20460;-52
2021/01/22 05:17:12;;;;;;;8.98;4.80;;;5.90;91.60;;;;;;5093436;28;20063;-51
2021/01/22 05:19:39;;;;;;;9.10;5.28;;;5.80;91.90;;;;;;5078470;28;20032;-51
2021/01/22 05:22:15;;;;;;;9.13;5.15;;;5.80;92.00;;;;;;5094290;28;20024;-52
2021/01/22 05:24:41;;;;;;;7.53;5.13;;;5.60;92.30;;;;;;5061903;28;20055;-52
2021/01/22 05:27:14;;;;;;;5.35;3.35;;;5.60;92.50;;;;;;5097438;28;20386;-52
2021/01/22 05:29:43;;;;;;;8.32;4.93;;;5.60;92.40;;;;;;5044811;28;20036;-52
2021/01/22 05:32:28;;;;;;;9.63;6.10;;;5.70;92.40;;;;;;5097284;28;20063;-51
2021/01/22 05:34:54;;;;;;;9.30;6.18;;;5.80;92.10;;;;;;5097261;28;20024;-51
2021/01/22 05:37:22;;;;;;;13.93;6.15;;;6.00;91.70;;;;;;5097095;28;20026;-52
2021/01/22 05:40:11;;;;;;;9.32;6.35;;;6.10;91.40;;;;;;5097211;28;20020;-52
2021/01/22 05:42:47;;;;;;;9.20;6.03;;;6.00;91.30;;;;;;5061906;28;20073;-51
2021/01/22 05:45:18;;;;;;;9.98;5.80;;;6.00;91.50;;;;;;5061525;28;20072;-52
2021/01/22 05:47:44;;;;;;;10.77;6.45;;;6.00;91.20;;;;;;5045538;28;20032;-52
2021/01/22 05:50:10;;;;;;;9.43;6.28;;;6.00;91.20;;;;;;5097231;28;20488;-51
2021/01/22 05:52:36;;;;;;;11.57;7.43;;;5.90;91.50;;;;;;5044354;28;20496;-52
2021/01/22 05:55:19;;;;;;;9.93;6.65;;;6.00;91.40;;;;;;5097331;28;20035;-51
2021/01/22 05:57:45;;;;;;;11.02;7.45;;;6.00;91.40;;;;;;5028487;28;20517;-52
2021/01/22 06:00:13;;;;;;;8.45;6.15;;;6.00;91.40;;;;;;5096993;28;20031;-52
2021/01/22 06:02:39;;;;;;;12.82;7.45;;;6.20;91.10;;;;;;5028882;28;20410;-51
2021/01/22 06:05:18;;;;;;;12.45;7.13;;;6.20;91.00;;;;;;5097019;28;20076;-51
2021/01/22 06:07:45;;;;;;;10.88;7.70;;;6.10;91.10;;;;;;5096673;28;20028;-51
2021/01/22 06:10:13;;;;;;;13.23;7.43;;;6.20;91.00;;;;;;5097030;28;20028;-51
2021/01/22 06:12:43;;;;;;;15.77;8.57;;;6.20;90.90;;;;;;5061295;28;20059;-51
2021/01/22 06:15:11;;;;;;;12.32;8.13;;;6.10;91.00;;;;;;5096442;28;20064;-51
2021/01/22 06:17:38;;;;;;;14.13;8.60;;;6.20;91.10;;;;;;5033974;28;20068;-52
2021/01/22 06:20:07;;;;;;;15.07;8.77;;;6.10;91.20;;;;;;5034230;28;20517;-52
2021/01/22 06:22:40;;;;;;;13.60;9.05;;;6.10;91.00;;;;;;5017605;28;20041;-51
2021/01/22 06:25:08;;;;;;;38.67;12.65;;;6.00;91.30;;;;;;5034188;28;20041;-52
2021/01/22 06:27:35;;;;;;;18.83;11.80;;;6.30;91.00;;;;;;4984521;28;20038;-52
2021/01/22 06:30:01;;;;;;;26.58;15.23;;;6.40;90.80;;;;;;5000160;28;20132;-52
2021/01/22 06:32:28;;;;;;;23.52;11.90;;;6.60;90.40;;;;;;5033927;28;20057;-52
2021/01/22 06:34:57;;;;;;;21.92;12.13;;;6.60;90.30;;;;;;5016790;28;20040;-52
2021/01/22 06:37:24;;;;;;;16.38;10.85;;;6.70;90.20;;;;;;5033821;28;20470;-52
2021/01/22 06:39:52;;;;;;;19.40;12.02;;;6.70;90.30;;;;;;5017315;28;20120;-52
2021/01/22 06:42:19;;;;;;;43.95;24.02;;;6.70;90.10;;;;;;5033421;28;20112;-52
2021/01/22 06:44:45;;;;;;;40.95;26.30;;;6.80;90.00;;;;;;5033554;28;20438;-51
2021/01/22 06:47:12;;;;;;;21.30;14.40;;;7.10;89.20;;;;;;4984449;28;20087;-52
2021/01/22 06:49:39;;;;;;;20.45;12.50;;;7.60;88.70;;;;;;5033648;28;20172;-52
2021/01/22 06:52:12;;;;;;;17.90;11.80;;;8.20;87.00;;;;;;5033179;28;20041;-51
2021/01/22 06:54:56;;;;;;;16.02;10.57;;;9.60;83.10;;;;;;5055038;28;20047;-50
2021/01/22 06:57:23;;;;;;;18.15;10.55;;;10.90;76.90;;;;;;5095670;28;20024;-50
2021/01/22 06:59:49;;;;;;;16.50;10.13;;;12.20;72.40;;;;;;5095618;28;20035;-50
2021/01/22 07:02:33;;;;;;;13.85;10.27;;;12.30;70.00;;;;;;5095872;28;20028;-53
2021/01/22 07:04:59;;;;;;;17.23;11.10;;;12.60;67.10;;;;;;5095771;28;20506;-49
2021/01/22 07:08:00;;;;;;;14.90;10.32;;;12.50;66.50;;;;;;5095354;28;20360;-50
2021/01/22 07:10:56;;;;;;;13.07;9.05;;;12.00;68.50;;;;;;4993971;28;20363;-50
2021/01/22 07:13:33;;;;;;;12.65;7.43;;;11.90;69.00;;;;;;4993646;28;20889;-50
2021/01/22 07:16:25;;;;;;;12.02;7.43;;;11.60;69.80;;;;;;4993663;28;20038;-50
2021/01/22 07:18:59;;;;;;;11.68;7.72;;;11.40;71.00;;;;;;4941505;29;20035;-50
2021/01/22 07:21:37;;;;;;;13.02;7.63;;;11.50;71.50;;;;;;4954542;29;20055;-51
2021/01/22 07:24:05;;;;;;;13.43;7.70;;;12.40;70.90;;;;;;4955007;28;20040;-55
2021/01/22 07:26:35;;;;;;;14.95;8.40;;;13.60;68.00;;;;;;4923707;29;20074;-54
2021/01/22 07:29:16;;;;;;;13.25;9.50;;;13.20;65.20;;;;;;4954901;29;20422;-55
2021/01/22 07:32:07;;;;;;;17.58;10.40;;;12.30;66.90;;;;;;4954456;29;20047;-54
2021/01/22 07:35:02;;;;;;;17.35;10.95;;;11.40;70.50;;;;;;4953429;28;20035;-54
2021/01/22 07:37:35;;;;;;;12.00;7.50;;;10.70;74.30;;;;;;4916373;29;20056;-53
2021/01/22 07:40:06;;;;;;;15.27;7.75;;;10.60;75.20;;;;;;4916267;29;20088;-53
2021/01/22 07:42:32;;;;;;;9.68;6.13;;;10.70;74.80;;;;;;4924853;29;20050;-53
2021/01/22 07:45:14;;;;;;;14.80;7.63;;;10.40;75.60;;;;;;4991496;28;20113;-54
2021/01/22 07:47:42;;;;;;;15.32;9.18;;;10.40;76.50;;;;;;5012690;28;20482;-53
2021/01/22 07:50:12;;;;;;;21.50;10.65;;;10.50;76.50;;;;;;5012662;28;20037;-53
2021/01/22 07:52:43;;;;;;;14.45;9.43;;;10.70;76.30;;;;;;5012856;28;20025;-53
2021/01/22 07:55:19;;;;;;;16.67;10.77;;;10.80;76.20;;;;;;5013472;28;20041;-53
2021/01/22 07:57:46;;;;;;;19.27;9.95;;;10.90;76.00;;;;;;5051983;28;20488;-53
2021/01/22 08:00:16;;;;;;;16.52;9.90;;;11.00;76.10;;;;;;5052111;28;20533;-53
2021/01/22 08:02:58;;;;;;;16.02;9.40;;;11.00;76.00;;;;;;5002804;28;20497;-53
2021/01/22 08:18:47;;;;;;;13.73;10.05;;;11.00;75.90;;;;;;5153109;27;20331;-52
2021/01/22 08:21:13;;;;;;;18.75;10.20;;;11.50;75.90;;;;;;5152462;27;20434;-52
2021/01/22 08:23:43;;;;;;;16.58;7.80;;;11.60;76.20;;;;;;5152453;27;20027;-52
2021/01/22 08:26:11;;;;;;;13.73;6.53;;;11.50;76.20;;;;;;5152608;27;20403;-52
2021/01/22 08:28:39;;;;;;;10.23;5.85;;;11.60;76.60;;;;;;5152834;27;20022;-52
2021/01/22 08:31:11;;;;;;;10.02;5.80;;;11.60;76.70;;;;;;5152661;27;20389;-52
2021/01/22 08:33:37;;;;;;;9.73;5.55;;;11.50;77.30;;;;;;5152165;27;20400;-52
2021/01/22 08:36:05;;;;;;;12.32;5.68;;;11.60;77.50;;;;;;5152554;27;20377;-52
2021/01/22 08:38:31;;;;;;;14.38;6.40;;;11.60;77.30;;;;;;5116381;27;20059;-52
2021/01/22 08:40:57;;;;;;;14.65;7.80;;;11.70;77.30;;;;;;5152470;27;20094;-52
2021/01/22 08:43:24;;;;;;;18.15;10.52;;;11.70;77.10;;;;;;5133129;27;20114;-52
2021/01/22 08:46:10;;;;;;;17.38;9.88;;;11.90;77.30;;;;;;5151404;27;20065;-52
2021/01/22 08:48:37;;;;;;;12.80;7.90;;;11.80;77.50;;;;;;5149683;27;20053;-52
2021/01/22 08:51:04;;;;;;;18.92;13.93;;;12.10;76.80;;;;;;5151306;27;20075;-52
2021/01/22 08:53:30;;;;;;;16.15;10.35;;;12.10;76.80;;;;;;5151241;27;20023;-51
2021/01/22 08:56:22;;;;;;;20.52;11.73;;;12.30;76.20;;;;;;5131787;27;20472;-53
2021/01/22 08:59:08;;;;;;;9.50;5.75;;;12.20;76.60;;;;;;5145877;27;20039;-51
2021/01/22 09:01:49;;;;;;;11.75;6.07;;;12.30;76.50;;;;;;5146891;27;20023;-51
2021/01/22 09:04:24;;;;;;;8.82;6.65;;;12.50;75.70;;;;;;5149588;27;20541;-51
2021/01/22 09:06:54;;;;;;;12.52;7.15;;;12.40;75.90;;;;;;5110094;27;20036;-51
2021/01/22 09:09:47;;;;;;;16.25;8.43;;;12.40;75.90;;;;;;5150077;27;20031;-50
2021/01/22 09:12:21;;;;;;;14.23;9.05;;;12.40;76.60;;;;;;5064721;28;20037;-51
2021/01/22 09:14:54;;;;;;;18.85;11.50;;;12.40;76.60;;;;;;5015114;28;20503;-50
2021/01/22 09:17:42;;;;;;;15.98;10.25;;;12.40;77.10;;;;;;5034081;28;20053;-50
2021/01/22 09:20:18;;;;;;;16.35;9.27;;;12.30;77.20;;;;;;5044930;28;20132;-51
2021/01/22 09:22:49;;;;;;;13.07;6.93;;;12.40;77.10;;;;;;5011840;28;20033;-51
2021/01/22 09:25:20;;;;;;;11.30;7.00;;;12.40;77.30;;;;;;5043406;28;20033;-51
2021/01/22 09:27:47;;;;;;;16.23;11.10;;;12.30;77.50;;;;;;5045137;28;20038;-51
2021/01/22 09:30:15;;;;;;;20.23;14.73;;;12.20;78.00;;;;;;5042877;28;20037;-51
2021/01/22 09:32:49;;;;;;;19.60;11.85;;;12.30;78.50;;;;;;5042809;28;20048;-51
2021/01/22 09:35:16;;;;;;;16.70;9.85;;;12.40;78.30;;;;;;5043260;28;20029;-51
2021/01/22 09:37:42;;;;;;;18.92;10.13;;;12.60;77.50;;;;;;5042195;28;20079;-52
2021/01/22 09:40:09;;;;;;;16.92;10.98;;;12.90;76.90;;;;;;5044093;28;20021;-51
2021/01/22 09:42:35;;;;;;;20.15;12.80;;;13.00;76.10;;;;;;4992885;28;20546;-51
2021/01/22 09:45:01;;;;;;;19.45;9.95;;;13.10;76.20;;;;;;5033753;28;20384;-51
2021/01/22 09:47:27;;;;;;;28.73;18.27;;;13.20;75.50;;;;;;5034130;28;20029;-51
2021/01/22 09:49:52;;;;;;;27.08;16.63;;;13.50;75.20;;;;;;5098395;28;20059;-50
2021/01/22 09:52:18;;;;;;;21.48;13.50;;;13.80;75.10;;;;;;5116700;28;20020;-50
2021/01/22 09:54:45;;;;;;;20.98;13.40;;;14.30;73.70;;;;;;5116366;28;20071;-51
2021/01/22 09:57:11;;;;;;;21.20;12.32;;;14.70;72.50;;;;;;5116487;28;20032;-51
2021/01/22 09:59:37;;;;;;;24.25;15.50;;;15.00;71.50;;;;;;5116443;28;20097;-50
2021/01/22 10:02:04;;;;;;;36.58;20.10;;;15.30;70.50;;;;;;5116465;28;20023;-50
2021/01/22 10:04:29;;;;;;;27.33;17.13;;;15.50;70.30;;;;;;5116059;28;20023;-50
2021/01/22 10:06:55;;;;;;;19.08;14.18;;;15.80;68.50;;;;;;5116597;28;20028;-50
2021/01/22 10:09:21;;;;;;;36.10;17.98;;;16.10;67.90;;;;;;5116208;28;20031;-51
2021/01/22 10:11:47;;;;;;;33.88;18.77;;;15.70;67.80;;;;;;5117732;27;20042;-51
2021/01/22 10:14:13;;;;;;;29.02;18.30;;;16.20;67.90;;;;;;5115899;28;20406;-50
2021/01/22 10:16:38;;;;;;;18.73;10.20;;;16.70;68.20;;;;;;5115634;28;20020;-51
2021/01/22 10:19:04;;;;;;;16.90;11.02;;;16.60;65.30;;;;;;5116035;28;20028;-50
2021/01/22 10:21:30;;;;;;;16.63;13.27;;;16.40;65.20;;;;;;5115676;28;20492;-51
2021/01/22 10:23:57;;;;;;;35.35;25.40;;;17.20;65.40;;;;;;5039930;27;20041;-51
2021/01/22 10:26:23;;;;;;;13.85;10.95;;;17.80;63.50;;;;;;5135517;27;20027;-50
2021/01/22 10:28:51;;;;;;;25.80;16.52;;;18.00;62.80;;;;;;5133877;27;20418;-51
2021/01/22 10:31:16;;;;;;;26.05;18.73;;;18.30;63.00;;;;;;5115257;27;20481;-51
2021/01/22 10:33:43;;;;;;;24.02;14.30;;;18.20;61.70;;;;;;5135276;27;20026;-51
2021/01/22 10:36:09;;;;;;;21.52;13.25;;;17.70;61.60;;;;;;5134860;27;20110;-51
2021/01/22 10:38:35;;;;;;;24.52;16.08;;;17.50;62.00;;;;;;5135144;27;20102;-51
2021/01/22 10:41:02;;;;;;;33.30;21.83;;;17.10;62.80;;;;;;5133704;27;20053;-50
2021/01/22 10:43:28;;;;;;;20.83;17.42;;;17.00;63.40;;;;;;5116880;27;20031;-51
2021/01/22 10:45:54;;;;;;;29.88;27.48;;;17.30;63.70;;;;;;5135772;27;20481;-51
2021/01/22 10:48:20;;;;;;;35.00;32.38;;;18.10;63.20;;;;;;5135374;27;20038;-51
2021/01/22 10:50:48;;;;;;;30.42;27.88;;;18.60;72.50;;;;;;5135969;27;20020;-51
2021/01/22 10:53:14;;;;;;;48.95;45.88;;;18.90;63.20;;;;;;5133816;27;20027;-50
2021/01/22 10:55:40;;;;;;;19.95;18.23;;;19.00;58.80;;;;;;5135461;27;20030;-51
2021/01/22 10:58:06;;;;;;;18.10;16.40;;;19.40;57.50;;;;;;5135751;27;20027;-51
2021/01/22 11:00:34;;;;;;;12.30;9.85;;;19.60;56.70;;;;;;5135655;27;20068;-50
2021/01/22 11:03:01;;;;;;;11.25;7.72;;;19.40;57.60;;;;;;5135583;27;20015;-53
2021/01/22 11:05:27;;;;;;;9.27;7.18;;;18.80;57.50;;;;;;5135439;27;20144;-52
2021/01/22 11:07:52;;;;;;;11.15;7.68;;;18.60;59.10;;;;;;5135288;27;20482;-53
2021/01/22 11:10:19;;;;;;;8.43;5.72;;;17.90;59.80;;;;;;5135698;27;20026;-53
2021/01/22 11:12:46;;;;;;;13.60;12.55;;;17.90;59.80;;;;;;5135499;27;20027;-53
2021/01/22 11:15:12;;;;;;;7.07;4.80;;;18.70;57.10;;;;;;5135787;27;20480;-52
2021/01/22 11:17:37;;;;;;;7.60;4.32;;;19.20;55.90;;;;;;5135480;27;20039;-53
2021/01/22 11:20:04;;;;;;;8.88;7.97;;;18.70;55.60;;;;;;5135217;27;20351;-53
2021/01/22 11:22:31;;;;;;;13.70;12.60;;;18.70;57.00;;;;;;5112594;28;20028;-53
2021/01/22 11:24:57;;;;;;;7.05;4.15;;;18.60;57.50;;;;;;5109424;28;20042;-54
2021/01/22 11:40:32;;;;;;;11.90;7.40;;;18.20;58.50;;;;;;5141897;27;20122;-52
2021/01/22 11:42:58;;;;;;;9.95;9.13;;;19.30;59.10;;;;;;5130367;28;20035;-52
2021/01/22 11:45:23;;;;;;;11.50;8.48;;;19.00;60.60;;;;;;5104362;28;20032;-52
2021/01/22 11:47:49;;;;;;;12.00;10.90;;;19.40;60.00;;;;;;5063098;28;20028;-52
2021/01/22 11:50:15;;;;;;;16.65;15.15;;;19.40;59.10;;;;;;5111000;28;20019;-52
2021/01/22 11:52:41;;;;;;;11.88;8.88;;;19.50;59.40;;;;;;5076035;28;20035;-52
2021/01/22 11:55:07;;;;;;;12.10;11.10;;;19.70;58.70;;;;;;5059116;28;20036;-52
2021/01/22 11:57:33;;;;;;;16.38;15.05;;;19.60;56.00;;;;;;5092694;28;20054;-52
2021/01/22 11:59:58;;;;;;;8.45;5.72;;;19.30;57.30;;;;;;5110988;28;20020;-52
2021/01/22 12:02:24;;;;;;;12.77;11.45;;;18.60;57.80;;;;;;5075732;28;20028;-52
2021/01/22 12:04:50;;;;;;;12.82;11.55;;;19.20;59.40;;;;;;5111718;28;20038;-52
2021/01/22 12:07:16;;;;;;;10.25;9.20;;;19.60;58.80;;;;;;5110830;28;20077;-52
2021/01/22 12:09:41;;;;;;;16.92;13.35;;;20.30;57.00;;;;;;5092009;28;20093;-52
2021/01/22 12:12:09;;;;;;;16.65;10.23;;;21.00;57.20;;;;;;5110946;28;20374;-52
2021/01/22 12:14:35;;;;;;;10.80;7.00;;;21.70;53.90;;;;;;5075389;28;20032;-53
2021/01/22 12:17:01;;;;;;;14.70;5.05;;;;;;;;;;5075213;28;20038;-52
2021/01/22 12:19:27;;;;;;;4.90;1.90;;;;;;;;;;5092805;28;20044;-52
2021/01/22 12:21:53;;;;;;;4.18;2.03;;;23.60;74.80;;;;;;5110810;28;20020;-52
2021/01/22 12:24:19;;;;;;;13.18;4.90;;;23.30;69.60;;;;;;5110722;28;20473;-53
2021/01/22 12:26:45;;;;;;;11.45;4.40;;;23.20;67.00;;;;;;5110728;28;20050;-53
2021/01/22 12:29:10;;;;;;;15.73;4.53;;;22.30;65.40;;;;;;5110335;28;20032;-52
2021/01/22 12:31:36;;;;;;;6.18;2.35;;;;;;;;;;5058543;28;20032;-53
2021/01/22 12:34:02;;;;;;;4.68;3.05;;;21.10;45.70;;;;;;5075003;28;20034;-52
2021/01/22 12:36:28;;;;;;;3.55;2.10;;;20.10;50.10;;;;;;5110554;28;20459;-52
2021/01/22 12:38:54;;;;;;;2.22;1.23;;;19.30;49.60;;;;;;5110487;28;20050;-53
2021/01/22 12:41:19;;;;;;;3.28;1.48;;;19.10;49.70;;;;;;5097863;28;20412;-52
2021/01/22 12:43:45;;;;;;;12.45;7.38;;;18.90;51.80;;;;;;5061315;28;20051;-52
2021/01/22 12:46:12;;;;;;;7.10;2.20;;;19.30;51.10;;;;;;5105042;28;20101;-53
2021/01/22 12:48:38;;;;;;;11.30;2.45;;;19.40;51.90;;;;;;5117055;28;20031;-53
2021/01/22 12:51:04;;;;;;;11.75;5.35;;;19.70;50.40;;;;;;5080756;28;20043;-53
2021/01/22 12:53:30;;;;;;;13.35;8.85;;;19.30;49.60;;;;;;5116699;28;20020;-56
2021/01/22 12:55:56;;;;;;;5.43;2.35;;;19.10;51.70;;;;;;5116661;28;20015;-53
2021/01/22 12:58:21;;;;;;;7.18;3.58;;;18.80;50.70;;;;;;5116659;28;20097;-53
2021/01/22 13:00:47;;;;;;;18.25;9.23;;;18.60;52.20;;;;;;5116778;28;20020;-53
2021/01/22 13:03:13;;;;;;;16.02;7.90;;;18.70;52.30;;;;;;5116470;28;20051;-53
2021/01/22 13:05:38;;;;;;;10.88;6.38;;;18.60;52.80;;;;;;5116742;28;20107;-55
2021/01/22 13:08:05;;;;;;;19.48;13.52;;;18.40;53.30;;;;;;5080748;28;20063;-53
2021/01/22 13:10:30;;;;;;;6.85;3.13;;;18.30;54.00;;;;;;5116566;28;20027;-53
2021/01/22 13:12:56;;;;;;;17.50;13.88;;;18.10;55.20;;;;;;5116469;28;20028;-53
2021/01/22 13:15:22;;;;;;;21.67;13.23;;;18.20;55.50;;;;;;5116222;28;20027;-53